createdAt,value
2016-12-19T09:28:13.855Z,53.24
2016-12-19T09:28:54.624Z,53.24
2016-12-19T09:29:35.404Z,53.34
2016-12-19T09:30:16.114Z,53.82
2016-12-19T09:30:56.816Z,53.34
2016-12-19T09:31:37.563Z,54.97
2016-12-19T09:32:18.369Z,53.53
2016-12-19T09:32:59.143Z,53.63
2016-12-19T09:33:39.841Z,55.1
2016-12-19T09:34:20.548Z,53.08
2016-12-19T09:35:01.255Z,52.02
2016-12-19T09:35:41.956Z,51.54
2016-12-19T09:36:22.661Z,51.73
2016-12-19T09:37:03.365Z,51.64
2016-12-19T09:37:44.128Z,51.93
2016-12-19T09:38:24.881Z,51.64
2016-12-19T09:39:05.588Z,52.02
2016-12-19T09:39:46.319Z,53.08
2016-12-19T09:40:27.055Z,52.53
2016-12-19T09:41:07.832Z,52.62
2016-12-19T09:41:48.548Z,52.24
2016-12-19T09:42:29.269Z,53.11
2016-12-19T09:43:09.982Z,52.91
2016-12-19T09:43:50.767Z,53.52
2016-12-19T09:44:31.503Z,51.86
2016-12-19T09:45:12.216Z,48.71
2016-12-19T09:45:52.923Z,49.46
2016-12-19T09:46:33.628Z,50.49
2016-12-19T09:47:14.463Z,52.2
2016-12-19T09:47:55.188Z,53.16
2016-12-19T09:48:35.919Z,55.18
2016-12-19T09:49:16.624Z,58.86
2016-12-19T09:49:57.374Z,53.21
2016-12-19T09:50:38.092Z,51.67
2016-12-19T09:51:18.802Z,50.71
2016-12-19T09:51:59.546Z,50.59
2016-12-19T09:52:40.270Z,49.6
2016-12-19T09:53:20.975Z,50.18
2016-12-19T09:54:01.688Z,50.56
2016-12-19T09:54:42.411Z,51.53
2016-12-19T09:55:23.112Z,51.72
2016-12-19T09:56:03.838Z,52.58
2016-12-19T09:56:44.547Z,51.81
2016-12-19T09:57:25.373Z,51.43
2016-12-19T09:58:06.084Z,51.72
2016-12-19T09:58:46.812Z,52.2
2016-12-19T09:59:27.518Z,51.62
2016-12-19T10:00:08.276Z,52.61
2016-12-19T10:00:49.003Z,51.64
2016-12-19T10:01:29.711Z,51.45
2016-12-19T10:02:10.445Z,53.19
2016-12-19T10:02:51.146Z,50.4
2016-12-19T10:03:31.864Z,49.6
2016-12-19T10:04:12.591Z,49.41
2016-12-19T10:04:53.317Z,50.18
2016-12-19T10:05:34.036Z,49.69
2016-12-19T10:06:14.834Z,49.31
2016-12-19T10:06:55.568Z,49.02
2016-12-19T10:07:36.319Z,49.51
2016-12-19T10:08:17.031Z,49.51
2016-12-19T10:08:57.799Z,49.22
2016-12-19T10:09:38.532Z,49.51
2016-12-19T10:10:19.242Z,49.41
2016-12-19T10:10:59.951Z,49.69
2016-12-19T10:11:40.746Z,49.31
2016-12-19T10:12:21.460Z,49.41
2016-12-19T10:13:02.185Z,50.76
2016-12-19T10:13:42.964Z,50.3
2016-12-19T10:14:23.676Z,50.01
2016-12-19T10:15:04.398Z,49.43
2016-12-19T10:15:45.130Z,49.91
2016-12-19T10:16:25.844Z,50.59
2016-12-19T10:17:06.590Z,49.15
2016-12-19T10:17:47.367Z,49.43
2016-12-19T10:18:28.195Z,50.01
2016-12-19T10:19:08.928Z,49.24
2016-12-19T10:19:49.654Z,49.53
2016-12-19T10:20:30.369Z,49.07
2016-12-19T10:21:11.076Z,49.46
2016-12-19T10:21:51.822Z,49.07
2016-12-19T10:22:32.531Z,48.11
2016-12-19T10:23:13.249Z,49.74
2016-12-19T10:23:53.981Z,48.59
2016-12-19T10:24:34.689Z,47.82
2016-12-19T10:25:15.397Z,48.11
2016-12-19T10:25:56.107Z,47.99
2016-12-19T10:26:36.816Z,48.18
2016-12-19T10:27:17.538Z,47.99
2016-12-19T10:27:58.254Z,47.89
2016-12-19T10:28:38.971Z,48.38
2016-12-19T10:29:19.680Z,48.47
2016-12-19T10:30:00.403Z,48.76
2016-12-19T10:30:41.128Z,48.38
2016-12-19T10:31:21.838Z,48.08
2016-12-19T10:32:02.544Z,48.47
2016-12-19T10:32:43.250Z,48.18
2016-12-19T10:33:23.968Z,49.36
2016-12-19T10:34:04.681Z,48.88
2016-12-19T10:34:45.962Z,49.27
2016-12-19T10:35:26.107Z,49.36
2016-12-19T10:36:06.818Z,49.48
2016-12-19T10:36:47.536Z,51.82
2016-12-19T10:37:28.249Z,48.28
2016-12-19T10:38:09.026Z,47.7
2016-12-19T10:38:49.737Z,59.52
2016-12-19T10:39:30.464Z,48.76
2016-12-19T10:40:11.271Z,42.91
2016-12-19T10:40:51.925Z,40.47
2016-12-19T10:41:32.662Z,41.15
2016-12-19T10:42:13.377Z,42.85
2016-12-19T10:42:54.120Z,44.18
2016-12-19T10:43:34.820Z,44.54
2016-12-19T10:44:15.526Z,44.81
2016-12-19T10:44:56.327Z,45.87
2016-12-19T10:45:37.049Z,46.83
2016-12-19T10:46:17.764Z,47.89
2016-12-19T10:46:58.482Z,50.04
2016-12-19T10:47:39.200Z,45.34
2016-12-19T10:48:19.954Z,45.62
2016-12-19T10:49:00.700Z,44.76
2016-12-19T10:49:41.452Z,46.18
2016-12-19T10:50:22.164Z,46.47
2016-12-19T10:51:02.898Z,46.18
2016-12-19T10:51:43.622Z,46.47
2016-12-19T10:52:24.326Z,46.56
2016-12-19T10:53:05.089Z,46.66
2016-12-19T10:53:45.796Z,47.72
2016-12-19T10:54:26.518Z,47.7
2016-12-19T10:55:07.225Z,47.6
2016-12-19T10:55:47.938Z,47.53
2016-12-19T10:56:28.652Z,47.6
2016-12-19T10:57:09.364Z,49.55
2016-12-19T10:57:50.071Z,46.56
2016-12-19T10:58:30.788Z,46.56
2016-12-19T10:59:11.517Z,46.56
2016-12-19T10:59:52.235Z,46.86
2016-12-19T11:02:37.208Z,44.05
2016-12-19T11:03:17.927Z,45.56
2016-12-19T11:03:58.651Z,47.75
2016-12-19T14:50:53.871Z,46.45
2016-12-19T14:51:34.585Z,45.79
2016-12-19T14:52:15.288Z,39.03
2016-12-19T14:52:55.993Z,45.97
2016-12-19T14:53:36.770Z,44.73
2016-12-19T14:54:17.513Z,42.42
2016-12-19T14:54:58.178Z,47.63
2016-12-19T14:55:38.796Z,40.12
2016-12-19T14:56:19.451Z,35.67
2016-12-19T14:57:00.176Z,37.48
2016-12-19T14:57:40.798Z,35.75
2016-12-19T14:58:21.498Z,37.58
2016-12-19T14:59:02.128Z,36.41
2016-12-19T14:59:42.742Z,35.16
2016-12-19T15:00:23.380Z,35.25
2016-12-19T15:01:04.004Z,37.56
2016-12-19T15:01:44.653Z,37.76
2016-12-19T15:02:25.273Z,37.37
2016-12-19T15:03:05.898Z,36.69
2016-12-19T15:03:46.524Z,40.07
2016-12-19T15:04:27.158Z,39.03
2016-12-19T15:05:07.784Z,36.02
2016-12-19T15:05:48.415Z,36.21
2016-12-19T15:06:29.051Z,35.54
2016-12-19T15:07:09.675Z,35.83
2016-12-19T15:07:50.297Z,36.04
2016-12-19T15:08:30.929Z,34.19
2016-12-19T15:09:11.557Z,34.09
2016-12-19T15:09:52.183Z,34.58
2016-12-19T15:10:32.803Z,33.03
2016-12-19T15:11:13.442Z,34.09
2016-12-19T15:11:54.074Z,32.65
2016-12-19T15:12:34.697Z,32.07
2016-12-19T15:13:15.353Z,32.17
2016-12-19T15:13:56.005Z,32.44
2016-12-19T15:14:36.711Z,31.96
2016-12-19T15:15:17.444Z,31.48
2016-12-19T15:15:58.073Z,30.61
2016-12-19T15:16:38.714Z,31.09
2016-12-19T15:17:19.520Z,30.71
2016-12-19T15:18:00.158Z,31
2016-12-19T15:18:40.781Z,32.82
2016-12-19T15:19:21.484Z,32.73
2016-12-19T15:20:02.112Z,33.51
2016-12-19T15:20:42.729Z,33.23
2016-12-19T15:21:23.419Z,33.15
2016-12-19T15:22:04.083Z,32.09
2016-12-19T15:22:44.710Z,32.07
2016-12-19T15:23:25.363Z,31.88
2016-12-19T15:24:06.055Z,32.26
2016-12-19T15:24:46.684Z,32.17
2016-12-19T15:25:27.318Z,32.18
2016-12-19T15:26:08.047Z,32.67
2016-12-19T15:26:48.682Z,32.76
2016-12-19T15:27:29.312Z,32.38
2016-12-19T15:28:09.944Z,32.86
2016-12-19T15:28:50.568Z,33.25
2016-12-19T15:29:31.258Z,33.05
2016-12-19T15:30:11.970Z,33.44
2016-12-19T15:30:52.675Z,33.15
2016-12-19T15:31:33.351Z,34.11
2016-12-19T15:32:13.993Z,39.43
2016-12-19T15:32:54.671Z,37.89
2016-12-19T15:33:35.302Z,34.9
2016-12-19T15:34:16.010Z,34.22
2016-12-19T15:34:56.652Z,35.1
2016-12-19T15:35:37.276Z,34.13
2016-12-19T15:36:17.986Z,35.48
2016-12-19T15:36:58.632Z,34.52
2016-12-19T15:37:39.275Z,33.55
2016-12-19T15:38:19.909Z,32.39
2016-12-19T15:39:00.539Z,33.45
2016-12-19T15:39:41.181Z,33.26
2016-12-19T15:40:21.817Z,33.65
2016-12-19T15:41:02.438Z,33.84
2016-12-19T15:41:43.078Z,33.07
2016-12-19T15:42:23.730Z,34.03
2016-12-19T15:43:04.463Z,33.55
2016-12-19T15:43:45.143Z,35.67
2016-12-19T15:44:25.796Z,35.96
2016-12-19T15:45:06.438Z,36.46
2016-12-19T15:45:47.088Z,34.82
2016-12-19T15:46:27.722Z,35.11
2016-12-19T15:47:08.417Z,34.8
2016-12-19T15:47:49.090Z,34.63
2016-12-19T15:48:29.723Z,35.19
2016-12-19T15:49:10.358Z,35.28
2016-12-19T15:49:50.993Z,35.38
2016-12-19T15:50:31.614Z,35.67
2016-12-19T15:51:12.273Z,35.4
2016-12-19T15:51:52.995Z,35.21
2016-12-19T15:52:33.618Z,35.28
2016-12-19T15:53:14.258Z,37.81
2016-12-19T15:53:54.955Z,35.88
2016-12-19T15:54:35.675Z,35.88
2016-12-19T15:55:16.236Z,35.78
2016-12-19T15:55:56.920Z,35.4
2016-12-19T15:56:37.545Z,35.11
2016-12-19T15:57:18.181Z,35.21
2016-12-19T15:57:58.810Z,35.59
2016-12-19T15:58:39.473Z,36.46
2016-12-19T15:59:20.117Z,36.36
2016-12-19T16:00:00.757Z,37.04
2016-12-19T16:00:41.392Z,35.88
2016-12-19T16:01:22.026Z,36.46
2016-12-19T16:02:02.659Z,35.42
2016-12-19T16:02:43.305Z,35.88
2016-12-19T16:03:23.934Z,35.78
2016-12-19T16:04:04.615Z,39.57
2016-12-19T16:04:45.246Z,37.54
2016-12-19T16:05:25.878Z,37.54
2016-12-19T16:06:06.563Z,37.54
2016-12-19T16:06:47.288Z,37.25
2016-12-19T16:07:27.920Z,37.83
2016-12-19T16:08:08.552Z,37.73
2016-12-19T16:08:49.203Z,37.83
2016-12-19T16:09:29.835Z,40.92
2016-12-19T16:10:10.509Z,39.09
2016-12-19T16:10:51.195Z,38.89
2016-12-19T16:11:31.829Z,38.6
2016-12-19T16:12:12.452Z,38.02
2016-12-19T16:12:53.082Z,37.73
2016-12-19T16:13:33.711Z,40.24
2016-12-19T16:14:14.343Z,40.24
2016-12-19T16:14:55.079Z,39.28
2016-12-19T16:15:35.713Z,38.79
2016-12-19T16:16:16.360Z,40.44
2016-12-19T16:16:56.994Z,39.66
2016-12-19T16:17:37.630Z,39.47
2016-12-19T16:18:18.272Z,39.95
2016-12-19T16:18:58.931Z,40.84
2016-12-19T16:19:39.559Z,29.08
2016-12-19T16:20:20.198Z,43.75
2016-12-19T16:21:00.856Z,38.26
2016-12-19T16:21:41.557Z,36.25
2016-12-19T16:22:22.139Z,36.55
2016-12-19T16:23:02.771Z,37.71
2016-12-19T16:23:43.552Z,37.81
2016-12-19T16:24:24.207Z,37.23
2016-12-19T16:25:04.919Z,37.06
2016-12-19T16:25:45.623Z,37.06
2016-12-19T16:26:26.274Z,37.06
2016-12-19T16:27:06.895Z,36.29
2016-12-19T16:27:47.564Z,36.48
2016-12-19T16:28:28.188Z,36.38
2016-12-19T16:29:08.816Z,36.38
2016-12-19T16:29:49.447Z,36.67
2016-12-19T16:30:30.080Z,36.57
2016-12-19T16:31:10.740Z,36.57
2016-12-19T16:31:51.388Z,37.06
2016-12-19T16:32:32.041Z,40.92
2016-12-19T16:33:12.686Z,38.79
2016-12-19T16:33:53.399Z,38.53
2016-12-19T16:34:34.135Z,39.2
2016-12-19T16:35:14.790Z,38.53
2016-12-19T16:35:55.424Z,38.43
2016-12-19T16:36:36.179Z,38.91
2016-12-19T16:37:16.810Z,38.43
2016-12-19T16:37:57.438Z,38.43
2016-12-19T16:38:38.072Z,38.62
2016-12-19T16:39:18.712Z,38.91
2016-12-19T16:39:59.342Z,39.39
2016-12-19T16:40:39.975Z,39.18
2016-12-19T16:41:20.662Z,39.11
2016-12-19T16:42:01.339Z,39.11
2016-12-19T16:42:41.967Z,39.01
2016-12-19T16:43:22.605Z,39.39
2016-12-19T16:44:03.307Z,38.62
2016-12-19T16:44:43.950Z,38.41
2016-12-19T16:45:24.581Z,37.95
2016-12-19T16:46:05.232Z,38.7
2016-12-19T16:46:45.870Z,38.89
2016-12-19T16:47:26.626Z,38.91
2016-12-19T16:48:07.279Z,38.6
2016-12-19T16:48:47.915Z,38.81
2016-12-19T16:49:28.581Z,37.73
2016-12-19T16:50:09.222Z,37.63
2016-12-19T16:50:49.869Z,37.83
2016-12-19T16:51:30.558Z,36.57
2016-12-19T16:52:11.191Z,37.25
2016-12-19T16:52:51.829Z,38.02
2016-12-19T16:53:32.476Z,38.31
2016-12-19T16:54:13.119Z,38.6
2016-12-19T16:54:53.824Z,37.83
2016-12-19T16:55:34.454Z,38.02
2016-12-19T16:56:15.103Z,37.93
2016-12-19T16:56:55.790Z,38.51
2016-12-19T16:57:36.487Z,39.01
2016-12-19T16:58:17.114Z,40.36
2016-12-19T16:58:57.766Z,41.42
2016-12-19T16:59:38.478Z,39.87
2016-12-19T17:00:19.182Z,37.95
2016-12-19T17:00:59.814Z,37.85
2016-12-19T17:01:40.521Z,36.98
2016-12-19T17:02:21.178Z,37.73
2016-12-19T17:03:01.822Z,38.6
2016-12-19T17:03:42.472Z,37.95
2016-12-19T17:04:23.106Z,37.83
2016-12-19T17:05:03.740Z,38.33
2016-12-19T17:05:44.372Z,37.46
2016-12-19T17:06:25.037Z,36.87
2016-12-19T17:07:05.664Z,36.57
2016-12-19T17:07:46.359Z,38.31
2016-12-19T17:08:26.993Z,36.98
2016-12-19T17:09:07.628Z,36.98
2016-12-19T17:09:48.255Z,37.06
2016-12-19T17:10:28.874Z,37.08
2016-12-19T17:11:09.505Z,37.45
2016-12-19T17:11:50.140Z,37.83
2016-12-19T17:12:30.805Z,38.62
2016-12-19T17:13:11.522Z,37.37
2016-12-19T17:13:52.072Z,37.46
2016-12-19T17:14:32.759Z,37.85
2016-12-19T17:15:13.389Z,37.85
2016-12-19T17:15:54.014Z,37.75
2016-12-19T17:16:34.646Z,37.96
2016-12-19T17:17:15.288Z,37.37
2016-12-19T17:17:55.923Z,36.79
2016-12-19T17:18:36.548Z,36.88
2016-12-19T17:19:17.193Z,36.88
2016-12-19T17:19:57.832Z,37.95
2016-12-19T17:20:38.512Z,37.65
2016-12-19T17:21:19.189Z,36.98
2016-12-19T17:21:59.815Z,37.46
2016-12-19T17:22:40.523Z,36.88
2016-12-19T17:23:21.156Z,35.24
2016-12-19T17:24:01.790Z,36.57
2016-12-19T17:24:42.425Z,35.52
2016-12-19T17:25:23.063Z,34.36
2016-12-19T17:26:03.686Z,37.25
2016-12-19T17:26:44.318Z,35.22
2016-12-19T17:27:25.000Z,36.38
2016-12-19T17:28:05.639Z,40.05
2016-12-19T17:28:46.281Z,36.77
2016-12-19T17:29:26.924Z,36.19
2016-12-19T17:30:07.551Z,36.38
2016-12-19T17:30:48.278Z,36
2016-12-19T17:31:28.913Z,36
2016-12-19T17:32:09.549Z,36.48
2016-12-19T17:32:50.206Z,36.48
2016-12-19T17:33:30.893Z,36.55
2016-12-19T17:34:11.526Z,36.55
2016-12-19T17:34:52.226Z,36.65
2016-12-19T17:35:32.951Z,37.73
2016-12-19T17:36:13.603Z,37.06
2016-12-19T17:36:54.260Z,37.06
2016-12-19T17:37:34.979Z,37.06
2016-12-19T17:38:15.652Z,37.85
2016-12-19T17:38:56.296Z,38.71
2016-12-19T17:39:36.999Z,37.27
2016-12-19T17:40:17.792Z,38.81
2016-12-19T17:40:58.452Z,37.85
2016-12-19T17:41:39.099Z,36.98
2016-12-19T17:42:19.818Z,37.75
2016-12-19T17:43:00.492Z,37.48
2016-12-19T17:43:41.130Z,37.96
2016-12-19T17:44:21.835Z,37
2016-12-19T17:45:02.474Z,36.13
2016-12-19T17:45:43.114Z,37.19
2016-12-19T17:46:23.774Z,37.37
2016-12-19T17:47:04.505Z,36.13
2016-12-19T17:47:45.182Z,38.06
2016-12-19T17:48:25.833Z,37.58
2016-12-19T17:49:06.540Z,36.59
2016-12-19T17:49:47.174Z,37.75
2016-12-19T17:50:27.815Z,39.01
2016-12-19T17:51:08.454Z,37.56
2016-12-19T17:51:49.091Z,37.46
2016-12-19T17:52:29.735Z,37.85
2016-12-19T17:53:10.384Z,40.09
2016-12-19T17:53:51.069Z,37.87
2016-12-19T17:54:31.723Z,37.96
2016-12-19T17:55:12.408Z,38.54
2016-12-19T17:55:53.050Z,37.87
2016-12-19T17:56:33.683Z,37.96
2016-12-19T17:57:14.320Z,38.33
2016-12-19T17:57:54.956Z,36.69
2016-12-19T17:58:35.588Z,39.39
2016-12-19T17:59:16.221Z,37.73
2016-12-19T17:59:56.881Z,38.62
2016-12-19T18:00:37.517Z,37.93
2016-12-19T18:01:18.148Z,37.85
2016-12-19T18:01:58.795Z,37.93
2016-12-19T18:02:39.431Z,40.82
2016-12-19T18:03:20.075Z,39.09
2016-12-19T18:04:00.715Z,36.77
2016-12-19T18:04:41.348Z,37.52
2016-12-19T18:05:21.985Z,37.04
2016-12-19T18:06:02.629Z,37.81
2016-12-19T18:06:43.260Z,37.21
2016-12-19T18:07:23.900Z,37.52
2016-12-19T18:08:04.636Z,37.71
2016-12-19T18:08:45.275Z,37.43
2016-12-19T18:09:25.919Z,37.71
2016-12-19T18:10:07.601Z,37.81
2016-12-19T18:10:48.305Z,37.71
2016-12-19T18:11:28.941Z,37.71
2016-12-19T18:12:09.575Z,37.62
2016-12-19T18:12:50.211Z,36.85
2016-12-19T18:13:30.841Z,37.04
2016-12-19T18:14:11.508Z,37.31
2016-12-19T18:14:52.149Z,37.5
2016-12-19T18:15:32.788Z,37.41
2016-12-19T18:16:13.424Z,37.71
2016-12-19T18:16:54.070Z,37.33
2016-12-19T18:17:34.712Z,37.33
2016-12-19T18:18:15.346Z,37.62
2016-12-19T18:18:55.975Z,36.35
2016-12-19T18:19:36.624Z,36.15
2016-12-19T18:20:17.267Z,36.15
2016-12-19T18:20:57.901Z,36.33
2016-12-19T18:21:38.535Z,36.61
2016-12-19T18:22:19.192Z,37.1
2016-12-19T18:22:59.865Z,37.01
2016-12-19T18:23:40.507Z,36.91
2016-12-19T18:24:21.141Z,37.1
2016-12-19T18:25:01.834Z,36.91
2016-12-19T18:25:42.467Z,37.01
2016-12-19T18:26:23.112Z,37.68
2016-12-19T18:27:03.760Z,37.77
2016-12-19T18:27:44.399Z,37.77
2016-12-19T18:28:25.034Z,37.77
2016-12-19T18:29:05.665Z,37.77
2016-12-19T18:29:46.295Z,37.87
2016-12-19T18:30:26.926Z,37.89
2016-12-19T18:31:07.559Z,37.68
2016-12-19T18:31:48.197Z,37.6
2016-12-19T18:32:28.868Z,37.5
2016-12-19T18:33:09.508Z,37.31
2016-12-19T18:33:50.141Z,37.7
2016-12-19T18:34:30.797Z,37.98
2016-12-19T18:35:11.424Z,37.89
2016-12-19T18:35:52.058Z,37.7
2016-12-19T18:36:32.720Z,38.28
2016-12-19T18:37:13.399Z,38.37
2016-12-19T18:37:54.042Z,38.28
2016-12-19T18:38:34.687Z,37.7
2016-12-19T18:39:15.424Z,38.26
2016-12-19T18:39:56.063Z,38.56
2016-12-19T18:40:36.702Z,38.45
2016-12-19T18:41:17.454Z,38.54
2016-12-19T18:41:58.195Z,38.35
2016-12-19T18:42:38.829Z,37.77
2016-12-19T18:43:19.517Z,38.26
2016-12-19T18:44:00.168Z,37.87
2016-12-19T18:44:40.844Z,37.87
2016-12-19T18:45:21.486Z,37.87
2016-12-19T18:46:02.184Z,37.87
2016-12-19T18:46:42.819Z,38.06
2016-12-19T18:47:23.484Z,38.35
2016-12-19T18:48:04.139Z,37.96
2016-12-19T18:48:44.792Z,37.96
2016-12-19T18:49:25.435Z,37.96
2016-12-19T18:50:06.095Z,38.35
2016-12-19T18:50:46.714Z,38.54
2016-12-19T18:51:27.377Z,38.45
2016-12-19T18:52:08.009Z,37.96
2016-12-19T18:52:48.650Z,37.87
2016-12-19T18:53:29.296Z,38.64
2016-12-19T18:54:09.934Z,38.43
2016-12-19T18:54:50.615Z,38.72
2016-12-19T18:55:31.241Z,38.83
2016-12-19T18:56:11.885Z,38.81
2016-12-19T18:56:52.539Z,38.81
2016-12-19T18:57:33.222Z,38.91
2016-12-19T18:58:13.869Z,38.91
2016-12-19T18:58:54.555Z,38.91
2016-12-19T18:59:35.247Z,39.11
2016-12-19T19:00:15.828Z,39.11
2016-12-19T19:00:56.527Z,39.01
2016-12-19T19:01:37.155Z,39.01
2016-12-19T19:02:17.793Z,38.91
2016-12-19T19:02:58.435Z,39.39
2016-12-19T19:03:39.112Z,39.39
2016-12-19T19:04:19.746Z,39.2
2016-12-19T19:05:00.379Z,39.2
2016-12-19T19:05:41.079Z,39.2
2016-12-19T19:06:21.740Z,39.2
2016-12-19T19:07:02.368Z,39.59
2016-12-19T19:07:43.109Z,39.68
2016-12-19T19:08:23.748Z,39.66
2016-12-19T19:09:04.461Z,39.86
2016-12-19T19:09:45.092Z,40.05
2016-12-19T19:10:25.724Z,39.95
2016-12-19T19:11:06.351Z,40.05
2016-12-19T19:11:47.028Z,39.86
2016-12-19T19:12:27.676Z,39.86
2016-12-19T19:13:08.331Z,39.95
2016-12-19T19:13:48.968Z,39.95
2016-12-19T19:14:29.597Z,40.24
2016-12-19T19:15:10.229Z,40.05
2016-12-19T19:15:50.923Z,39.76
2016-12-19T19:16:31.580Z,40.24
2016-12-19T19:17:12.219Z,40.14
2016-12-19T19:17:52.899Z,40.24
2016-12-19T19:18:33.578Z,40.14
2016-12-19T19:19:14.214Z,40.14
2016-12-19T19:19:54.853Z,40.43
2016-12-19T19:20:35.548Z,40.43
2016-12-19T19:21:16.190Z,40.43
2016-12-19T19:21:56.820Z,40.53
2016-12-19T19:22:38.561Z,40.99
2016-12-19T19:23:19.281Z,40.72
2016-12-19T19:23:59.866Z,40.63
2016-12-19T19:24:40.503Z,40.81
2016-12-19T19:25:21.219Z,40.8
2016-12-19T19:26:01.771Z,40.89
2016-12-19T19:26:42.448Z,40.61
2016-12-19T19:27:23.082Z,41.11
2016-12-19T19:28:03.752Z,41.11
2016-12-19T19:28:44.433Z,40.72
2016-12-19T19:29:25.083Z,40.99
2016-12-19T19:30:05.712Z,40.99
2016-12-19T19:30:46.362Z,41.08
2016-12-19T19:31:27.020Z,40.89
2016-12-19T19:32:07.778Z,41.08
2016-12-19T19:32:48.494Z,41.08
2016-12-19T19:33:29.170Z,40.99
2016-12-19T19:34:09.801Z,41.38
2016-12-19T19:34:50.435Z,41.38
2016-12-19T19:35:31.098Z,41.28
2016-12-19T19:36:11.730Z,41.38
2016-12-19T19:36:52.366Z,41.28
2016-12-19T19:37:33.028Z,41.38
2016-12-19T19:38:13.675Z,41.38
2016-12-19T19:38:54.313Z,41.28
2016-12-19T19:39:35.020Z,41.28
2016-12-19T19:40:15.656Z,41.38
2016-12-19T19:40:56.291Z,41.66
2016-12-19T19:41:36.981Z,41.76
2016-12-19T19:42:17.650Z,41.66
2016-12-19T19:42:58.319Z,41.66
2016-12-19T19:43:39.032Z,41.66
2016-12-19T19:44:19.762Z,41.76
2016-12-19T19:45:00.425Z,41.86
2016-12-19T19:45:41.112Z,41.95
2016-12-19T19:46:21.857Z,41.86
2016-12-19T19:47:02.490Z,41.76
2016-12-19T19:47:43.130Z,41.95
2016-12-19T19:48:23.877Z,42.05
2016-12-19T19:49:04.575Z,42.05
2016-12-19T19:49:45.357Z,42.05
2016-12-19T19:50:25.984Z,41.95
2016-12-19T19:51:06.695Z,42.03
2016-12-19T19:51:47.390Z,42.03
2016-12-19T19:52:28.041Z,42.12
2016-12-19T19:53:08.697Z,42.03
2016-12-19T19:53:49.312Z,42.12
2016-12-19T19:54:29.974Z,42.22
2016-12-19T19:55:10.616Z,42.32
2016-12-19T19:55:51.258Z,42.12
2016-12-19T19:56:31.880Z,42.22
2016-12-19T19:57:12.518Z,42.22
2016-12-19T19:57:53.190Z,42.32
2016-12-19T19:58:33.831Z,42.32
2016-12-19T19:59:14.467Z,42.5
2016-12-19T19:59:55.162Z,42.41
2016-12-19T20:00:36.346Z,42.5
2016-12-19T20:01:17.021Z,42.41
2016-12-19T20:01:57.625Z,42.5
2016-12-19T20:02:38.273Z,42.7
2016-12-19T20:03:18.922Z,42.41
2016-12-19T20:03:59.565Z,42.6
2016-12-19T20:04:40.249Z,42.41
2016-12-19T20:05:20.884Z,42.41
2016-12-19T20:06:01.525Z,42.6
2016-12-19T20:06:42.157Z,42.5
2016-12-19T20:07:22.794Z,42.7
2016-12-19T20:08:03.458Z,42.7
2016-12-19T20:08:44.104Z,42.8
2016-12-19T20:09:24.743Z,42.8
2016-12-19T20:10:05.410Z,42.8
2016-12-19T20:10:46.035Z,42.89
2016-12-19T20:11:26.682Z,42.8
2016-12-19T20:12:07.333Z,42.7
2016-12-19T20:12:47.972Z,42.8
2016-12-19T20:13:28.610Z,42.7
2016-12-19T20:14:09.246Z,43.08
2016-12-19T20:14:49.873Z,42.8
2016-12-19T20:15:30.513Z,42.89
2016-12-19T20:16:11.195Z,43.08
2016-12-19T20:16:51.832Z,42.89
2016-12-19T20:17:32.554Z,42.99
2016-12-19T20:18:13.191Z,42.89
2016-12-19T20:18:53.833Z,43.08
2016-12-19T20:19:34.481Z,42.89
2016-12-19T20:20:15.120Z,42.99
2016-12-19T20:20:55.761Z,42.89
2016-12-19T20:21:36.396Z,42.99
2016-12-19T20:22:17.046Z,42.99
2016-12-19T20:22:57.701Z,42.87
2016-12-19T20:23:38.340Z,43.37
2016-12-19T20:24:18.999Z,43.37
2016-12-19T20:24:59.680Z,43.28
2016-12-19T20:25:40.369Z,43.18
2016-12-19T20:26:21.014Z,43.37
2016-12-19T20:27:01.654Z,43.08
2016-12-19T20:27:42.303Z,43.28
2016-12-19T20:28:22.928Z,43.45
2016-12-19T20:29:03.558Z,43.16
2016-12-19T20:29:44.252Z,43.35
2016-12-19T20:30:24.888Z,43.26
2016-12-19T20:31:05.544Z,43.45
2016-12-19T20:31:46.191Z,43.16
2016-12-19T20:32:26.885Z,43.35
2016-12-19T20:33:07.589Z,43.16
2016-12-19T20:33:48.234Z,43.54
2016-12-19T20:34:28.872Z,43.74
2016-12-19T20:35:09.599Z,43.74
2016-12-19T20:35:50.260Z,43.26
2016-12-19T20:36:30.958Z,43.35
2016-12-19T20:37:11.620Z,43.74
2016-12-19T20:37:52.262Z,43.26
2016-12-19T20:38:32.956Z,43.35
2016-12-19T20:39:13.684Z,43.64
2016-12-19T20:39:54.385Z,43.74
2016-12-19T20:40:35.036Z,43.64
2016-12-19T20:41:15.746Z,43.64
2016-12-19T20:41:56.493Z,43.74
2016-12-19T20:42:37.181Z,43.64
2016-12-19T20:43:17.826Z,43.64
2016-12-19T20:43:59.218Z,43.64
2016-12-19T20:44:39.850Z,43.93
2016-12-19T20:45:20.521Z,43.74
2016-12-19T20:46:01.252Z,43.93
2016-12-19T20:46:41.957Z,43.74
2016-12-19T20:47:22.527Z,43.64
2016-12-19T20:48:03.157Z,43.64
2016-12-19T20:48:43.792Z,43.74
2016-12-19T20:49:24.482Z,43.93
2016-12-19T20:50:05.153Z,43.74
2016-12-19T20:50:45.784Z,43.84
2016-12-19T20:51:26.446Z,43.54
2016-12-19T20:52:07.160Z,43.64
2016-12-19T20:52:47.864Z,43.64
2016-12-19T20:53:28.547Z,43.74
2016-12-19T20:54:09.188Z,43.74
2016-12-19T20:54:49.825Z,43.74
2016-12-19T20:55:30.456Z,43.74
2016-12-19T20:56:11.086Z,43.84
2016-12-19T20:56:51.754Z,43.54
2016-12-19T20:57:32.421Z,43.54
2016-12-19T20:58:13.039Z,43.54
2016-12-19T20:58:53.668Z,43.54
2016-12-19T20:59:34.320Z,43.45
2016-12-19T21:00:14.944Z,44.02
2016-12-19T21:00:55.589Z,43.54
2016-12-19T21:01:36.231Z,43.45
2016-12-19T21:02:16.897Z,43.54
2016-12-19T21:02:57.629Z,43.45
2016-12-19T21:03:38.260Z,43.93
2016-12-19T21:04:18.893Z,43.93
2016-12-19T21:04:59.557Z,43.84
2016-12-19T21:05:40.244Z,43.45
2016-12-19T21:06:20.879Z,44.12
2016-12-19T21:07:01.510Z,44.12
2016-12-19T21:07:42.160Z,43.93
2016-12-19T21:08:22.802Z,43.84
2016-12-19T21:09:03.429Z,43.93
2016-12-19T21:09:44.132Z,43.74
2016-12-19T21:10:24.781Z,43.74
2016-12-19T21:11:05.430Z,44.02
2016-12-19T21:11:46.164Z,43.74
2016-12-19T21:12:26.797Z,44.12
2016-12-19T21:13:07.432Z,43.74
2016-12-19T21:13:48.102Z,43.93
2016-12-19T21:14:28.766Z,44.12
2016-12-19T21:15:09.413Z,44.12
2016-12-19T21:15:50.046Z,43.74
2016-12-19T21:16:30.723Z,43.74
2016-12-19T21:17:11.413Z,43.84
2016-12-19T21:17:52.050Z,43.84
2016-12-19T21:18:32.706Z,43.93
2016-12-19T21:19:13.371Z,43.26
2016-12-19T21:19:54.008Z,43.74
2016-12-19T21:20:34.674Z,43.93
2016-12-19T21:21:15.311Z,43.84
2016-12-19T21:21:56.024Z,43.93
2016-12-19T21:22:36.738Z,43.74
2016-12-19T21:23:17.390Z,43.74
2016-12-19T21:23:58.027Z,43.64
2016-12-19T21:24:38.695Z,43.74
2016-12-19T21:25:19.381Z,43.74
2016-12-19T21:25:59.994Z,43.71
2016-12-19T21:26:41.118Z,43.74
2016-12-19T21:27:21.766Z,43.74
2016-12-19T21:28:02.427Z,43.74
2016-12-19T21:28:43.070Z,44.12
2016-12-19T21:29:23.728Z,43.84
2016-12-19T21:30:04.374Z,44.02
2016-12-19T21:30:45.043Z,43.93
2016-12-19T21:31:25.747Z,44
2016-12-19T21:32:06.382Z,44.12
2016-12-19T21:32:47.032Z,44.1
2016-12-19T21:33:27.674Z,43.81
2016-12-19T21:34:08.321Z,44.2
2016-12-19T21:34:48.960Z,43.71
2016-12-19T21:35:29.611Z,44.1
2016-12-19T21:36:10.259Z,43.81
2016-12-19T21:36:50.943Z,43.91
2016-12-19T21:37:31.608Z,43.74
2016-12-19T21:38:12.258Z,43.81
2016-12-19T21:38:52.979Z,43.91
2016-12-19T21:39:33.628Z,44.02
2016-12-19T21:40:14.269Z,43.71
2016-12-19T21:40:54.915Z,43.71
2016-12-19T21:41:35.584Z,43.71
2016-12-19T21:42:16.245Z,44
2016-12-19T21:42:56.892Z,44.29
2016-12-19T21:43:37.522Z,43.62
2016-12-19T21:44:18.248Z,44.29
2016-12-19T21:44:58.883Z,43.71
2016-12-19T21:45:39.523Z,44.29
2016-12-19T21:46:20.192Z,44
2016-12-19T21:47:00.840Z,44.29
2016-12-19T21:47:41.536Z,44.2
2016-12-19T21:48:22.196Z,44.38
2016-12-19T21:49:02.870Z,44.2
2016-12-19T21:49:43.570Z,44.38
2016-12-19T21:50:24.241Z,44.29
2016-12-19T21:51:04.872Z,44.38
2016-12-19T21:51:45.507Z,44.58
2016-12-19T21:52:26.159Z,44.58
2016-12-19T21:53:06.788Z,44.58
2016-12-19T21:53:47.487Z,44.48
2016-12-19T21:54:28.136Z,44.29
2016-12-19T21:55:08.821Z,44.48
2016-12-19T21:55:49.472Z,44.29
2016-12-19T21:56:30.154Z,44.48
2016-12-19T21:57:10.801Z,44.48
2016-12-19T21:57:51.519Z,44.48
2016-12-19T21:58:32.163Z,44.38
2016-12-19T21:59:12.807Z,44.29
2016-12-19T21:59:53.464Z,44.48
2016-12-19T22:00:34.137Z,44.48
2016-12-19T22:01:14.782Z,44.29
2016-12-19T22:01:55.508Z,44.48